sensor_id;sensor_type;location;lat;lon;timestamp;pressure;altitude;pressure_sealevel;temperature;humidity
49651;BME280;35547;55.676;37.492;2022-09-21T00:00:31;99039.34;;;14.84;58.21
49651;BME280;35547;55.676;37.492;2022-09-21T00:01:32;99029.78;;;14.82;57.82
49651;BME280;35547;55.676;37.492;2022-09-21T00:02:32;99037.50;;;14.86;57.89
49651;BME280;35547;55.676;37.492;2022-09-21T00:03:34;99039.34;;;14.84;58.26
49651;BME280;35547;55.676;37.492;2022-09-21T00:04:35;99033.09;;;14.87;58.07
49651;BME280;35547;55.676;37.492;2022-09-21T00:05:35;99029.69;;;14.85;57.90
49651;BME280;35547;55.676;37.492;2022-09-21T00:06:36;99033.78;;;14.90;58.09
49651;BME280;35547;55.676;37.492;2022-09-21T00:07:37;99036.34;;;14.92;58.01
49651;BME280;35547;55.676;37.492;2022-09-21T00:08:38;99039.78;;;14.94;58.05
49651;BME280;35547;55.676;37.492;2022-09-21T00:09:38;99031.09;;;14.92;57.76
49651;BME280;35547;55.676;37.492;2022-09-21T00:10:39;99035.31;;;14.96;57.88
49651;BME280;35547;55.676;37.492;2022-09-21T00:11:40;99036.25;;;14.95;58.07
49651;BME280;35547;55.676;37.492;2022-09-21T00:12:40;99030.69;;;15.01;57.36
49651;BME280;35547;55.676;37.492;2022-09-21T00:13:41;99022.38;;;14.91;57.53
49651;BME280;35547;55.676;37.492;2022-09-21T00:14:45;99030.19;;;14.93;57.86
49651;BME280;35547;55.676;37.492;2022-09-21T00:15:46;99024.72;;;14.98;57.58
49651;BME280;35547;55.676;37.492;2022-09-21T00:16:46;99016.34;;;14.89;57.87
49651;BME280;35547;55.676;37.492;2022-09-21T00:17:50;99039.50;;;15.00;57.58
49651;BME280;35547;55.676;37.492;2022-09-21T00:18:52;99028.25;;;14.97;57.67
49651;BME280;35547;55.676;37.492;2022-09-21T00:19:52;99013.75;;;14.88;57.69
49651;BME280;35547;55.676;37.492;2022-09-21T00:20:53;99032.09;;;14.89;57.89
49651;BME280;35547;55.676;37.492;2022-09-21T00:21:54;99028.25;;;14.97;57.49
49651;BME280;35547;55.676;37.492;2022-09-21T00:22:55;99019.59;;;14.94;57.75
49651;BME280;35547;55.676;37.492;2022-09-21T00:23:57;99035.50;;;14.91;57.74
49651;BME280;35547;55.676;37.492;2022-09-21T00:24:58;99029.53;;;14.88;57.81
49651;BME280;35547;55.676;37.492;2022-09-21T00:26:17;99043.81;;;15.01;57.86
49651;BME280;35547;55.676;37.492;2022-09-21T00:27:18;99030.88;;;14.97;57.70
49651;BME280;35547;55.676;37.492;2022-09-21T00:28:19;99036.94;;;14.99;57.63
49651;BME280;35547;55.676;37.492;2022-09-21T00:29:19;99041.13;;;15.03;57.61
49651;BME280;35547;55.676;37.492;2022-09-21T00:30:20;99035.09;;;15.01;57.90
49651;BME280;35547;55.676;37.492;2022-09-21T00:31:22;99030.69;;;15.01;57.72
49651;BME280;35547;55.676;37.492;2022-09-21T00:32:23;99041.34;;;14.98;57.80
49651;BME280;35547;55.676;37.492;2022-09-21T00:33:26;99032.72;;;14.94;57.58
49651;BME280;35547;55.676;37.492;2022-09-21T00:34:26;99022.31;;;14.93;57.89
49651;BME280;35547;55.676;37.492;2022-09-21T00:35:27;99028.78;;;15.05;57.57
49651;BME280;35547;55.676;37.492;2022-09-21T00:36:28;99043.34;;;15.12;57.63
49651;BME280;35547;55.676;37.492;2022-09-21T00:37:29;99029.84;;;15.01;57.51
49651;BME280;35547;55.676;37.492;2022-09-21T00:38:30;99031.19;;;15.09;57.28
49651;BME280;35547;55.676;37.492;2022-09-21T00:39:30;99033.81;;;15.09;57.20
49651;BME280;35547;55.676;37.492;2022-09-21T00:40:31;99036.31;;;15.12;57.26
49651;BME280;35547;55.676;37.492;2022-09-21T00:41:32;99040.88;;;15.09;57.57
49651;BME280;35547;55.676;37.492;2022-09-21T00:42:34;99047.81;;;15.10;57.66
49651;BME280;35547;55.676;37.492;2022-09-21T00:44:22;98988.72;;;15.00;57.18
49651;BME280;35547;55.676;37.492;2022-09-21T00:45:24;99038.97;;;15.12;57.08
49651;BME280;35547;55.676;37.492;2022-09-21T00:46:29;99046.75;;;15.14;57.49
49651;BME280;35547;55.676;37.492;2022-09-21T00:48:34;99050.75;;;15.04;57.89
49651;BME280;35547;55.676;37.492;2022-09-21T00:49:36;99037.59;;;15.04;57.89
49651;BME280;35547;55.676;37.492;2022-09-21T00:50:43;99041.59;;;15.12;57.49
49651;BME280;35547;55.676;37.492;2022-09-21T00:51:46;99034.81;;;15.07;57.62
49651;BME280;35547;55.676;37.492;2022-09-21T00:52:51;99043.38;;;15.50;56.33
49651;BME280;35547;55.676;37.492;2022-09-21T00:53:58;99042.78;;;15.24;57.14
49651;BME280;35547;55.676;37.492;2022-09-21T00:56:07;99041.38;;;15.17;57.07
49651;BME280;35547;55.676;37.492;2022-09-21T00:57:11;99026.22;;;15.03;57.23
49651;BME280;35547;55.676;37.492;2022-09-21T00:58:19;99041.09;;;15.23;57.24
49651;BME280;35547;55.676;37.492;2022-09-21T00:59:22;99041.22;;;15.20;56.95
49651;BME280;35547;55.676;37.492;2022-09-21T01:00:23;99036.75;;;15.22;57.14
49651;BME280;35547;55.676;37.492;2022-09-21T01:01:23;99033.28;;;15.22;56.84
49651;BME280;35547;55.676;37.492;2022-09-21T01:02:24;99035.84;;;15.23;56.95
49651;BME280;35547;55.676;37.492;2022-09-21T01:03:26;99024.09;;;15.11;56.80
49651;BME280;35547;55.676;37.492;2022-09-21T01:04:28;99018.19;;;15.06;56.87
49651;BME280;35547;55.676;37.492;2022-09-21T01:05:29;99021.75;;;15.05;57.00
49651;BME280;35547;55.676;37.492;2022-09-21T01:06:31;99035.34;;;15.15;57.30
49651;BME280;35547;55.676;37.492;2022-09-21T01:07:35;99040.59;;;15.15;57.05
49651;BME280;35547;55.676;37.492;2022-09-21T01:08:38;99031.19;;;15.09;57.26
49651;BME280;35547;55.676;37.492;2022-09-21T01:09:42;99034.97;;;15.04;57.17
49651;BME280;35547;55.676;37.492;2022-09-21T01:12:29;99038.59;;;15.39;56.58
49651;BME280;35547;55.676;37.492;2022-09-21T01:16:16;98999.16;;;15.20;56.69
49651;BME280;35547;55.676;37.492;2022-09-21T01:18:49;99023.53;;;15.24;56.68
49651;BME280;35547;55.676;37.492;2022-09-21T01:21:22;99013.44;;;15.14;56.94
49651;BME280;35547;55.676;37.492;2022-09-21T01:29:29;99019.91;;;15.45;56.32
49651;BME280;35547;55.676;37.492;2022-09-21T01:30:35;99027.59;;;15.31;56.44
49651;BME280;35547;55.676;37.492;2022-09-21T01:31:41;99034.91;;;15.24;56.67
49651;BME280;35547;55.676;37.492;2022-09-21T01:33:27;99027.59;;;15.50;56.26
49651;BME280;35547;55.676;37.492;2022-09-21T01:34:35;99026.88;;;15.27;56.32
49651;BME280;35547;55.676;37.492;2022-09-21T01:36:09;99038.09;;;15.50;56.18
49651;BME280;35547;55.676;37.492;2022-09-21T01:37:13;99029.84;;;15.76;55.56
49651;BME280;35547;55.676;37.492;2022-09-21T01:38:32;99033.34;;;15.58;55.81
49651;BME280;35547;55.676;37.492;2022-09-21T01:39:36;99032.72;;;15.34;56.36
49651;BME280;35547;55.676;37.492;2022-09-21T01:40:42;99024.25;;;15.27;56.33
49651;BME280;35547;55.676;37.492;2022-09-21T01:41:44;99027.28;;;15.18;56.54
49651;BME280;35547;55.676;37.492;2022-09-21T01:42:47;99035.13;;;15.20;56.96
49651;BME280;35547;55.676;37.492;2022-09-21T01:43:53;99036.13;;;15.17;56.94
49651;BME280;35547;55.676;37.492;2022-09-21T01:44:57;99013.16;;;15.02;57.14
49651;BME280;35547;55.676;37.492;2022-09-21T01:46:02;99044.13;;;15.14;57.01
49651;BME280;35547;55.676;37.492;2022-09-21T01:47:06;99024.09;;;15.11;56.88
49651;BME280;35547;55.676;37.492;2022-09-21T01:48:08;99035.41;;;15.13;56.84
49651;BME280;35547;55.676;37.492;2022-09-21T01:49:12;99016.25;;;15.10;56.61
49651;BME280;35547;55.676;37.492;2022-09-21T01:50:16;99020.63;;;15.11;56.67
49651;BME280;35547;55.676;37.492;2022-09-21T01:51:20;99035.97;;;15.20;56.59
49651;BME280;35547;55.676;37.492;2022-09-21T01:53:14;99038.53;;;15.41;56.58
49651;BME280;35547;55.676;37.492;2022-09-21T01:54:14;99031.84;;;15.33;56.19
49651;BME280;35547;55.676;37.492;2022-09-21T01:55:26;99037.75;;;15.39;56.20
49651;BME280;35547;55.676;37.492;2022-09-21T01:56:35;99034.41;;;15.35;56.03
49651;BME280;35547;55.676;37.492;2022-09-21T01:57:43;99031.94;;;15.32;56.12
49651;BME280;35547;55.676;37.492;2022-09-21T01:58:56;99030.59;;;15.23;56.50
49651;BME280;35547;55.676;37.492;2022-09-21T02:00:00;99037.25;;;15.11;56.49
49651;BME280;35547;55.676;37.492;2022-09-21T02:01:01;99036.91;;;15.19;56.84
49651;BME280;35547;55.676;37.492;2022-09-21T02:02:12;99036.69;;;15.24;56.67
49651;BME280;35547;55.676;37.492;2022-09-21T02:04:24;99035.53;;;15.10;57.21
49651;BME280;35547;55.676;37.492;2022-09-21T02:05:25;99045.19;;;15.10;57.28
49651;BME280;35547;55.676;37.492;2022-09-21T02:06:29;99041.91;;;15.05;57.70
49651;BME280;35547;55.676;37.492;2022-09-21T02:07:31;99040.56;;;14.96;57.73
49651;BME280;35547;55.676;37.492;2022-09-21T02:08:33;99041.69;;;14.90;57.95
49651;BME280;35547;55.676;37.492;2022-09-21T02:09:35;99041.75;;;14.89;58.07
49651;BME280;35547;55.676;37.492;2022-09-21T02:10:41;99041.88;;;14.86;57.91
49651;BME280;35547;55.676;37.492;2022-09-21T02:11:44;99041.81;;;14.87;58.25
49651;BME280;35547;55.676;37.492;2022-09-21T02:12:46;99038.56;;;14.82;57.85
49651;BME280;35547;55.676;37.492;2022-09-21T02:13:49;99042.03;;;14.83;58.32
49651;BME280;35547;55.676;37.492;2022-09-21T02:14:52;99047.28;;;14.83;58.03
49651;BME280;35547;55.676;37.492;2022-09-21T02:16:07;99042.66;;;14.88;57.99
49651;BME280;35547;55.676;37.492;2022-09-21T02:18:47;99042.28;;;15.16;57.17
49651;BME280;35547;55.676;37.492;2022-09-21T02:20:14;99047.13;;;15.25;56.76
49651;BME280;35547;55.676;37.492;2022-09-21T02:21:32;99045.97;;;15.12;57.15
49651;BME280;35547;55.676;37.492;2022-09-21T02:22:53;99051.16;;;15.13;57.01
49651;BME280;35547;55.676;37.492;2022-09-21T02:26:58;99053.28;;;15.05;57.80
49651;BME280;35547;55.676;37.492;2022-09-21T02:29:17;99027.34;;;14.98;57.66
49651;BME280;35547;55.676;37.492;2022-09-21T02:30:23;99055.06;;;15.05;57.71
49651;BME280;35547;55.676;37.492;2022-09-21T02:32:58;99029.31;;;14.92;58.29
49651;BME280;35547;55.676;37.492;2022-09-21T02:35:18;99056.78;;;15.06;57.78
49651;BME280;35547;55.676;37.492;2022-09-21T02:37:50;99062.94;;;15.05;57.67
49651;BME280;35547;55.676;37.492;2022-09-21T02:39:04;99063.09;;;15.02;57.98
49651;BME280;35547;55.676;37.492;2022-09-21T02:40:24;99038.50;;;15.03;57.44
49651;BME280;35547;55.676;37.492;2022-09-21T02:42:40;99056.47;;;15.12;57.55
49651;BME280;35547;55.676;37.492;2022-09-21T02:43:48;99051.31;;;15.10;57.14
49651;BME280;35547;55.676;37.492;2022-09-21T02:45:10;99050.16;;;15.16;57.23
49651;BME280;35547;55.676;37.492;2022-09-21T02:46:26;99060.47;;;15.21;57.05
49651;BME280;35547;55.676;37.492;2022-09-21T02:47:45;99054.28;;;15.03;57.64
49651;BME280;35547;55.676;37.492;2022-09-21T02:48:51;99056.38;;;14.94;57.72
49651;BME280;35547;55.676;37.492;2022-09-21T02:49:59;99048.78;;;14.88;58.00
49651;BME280;35547;55.676;37.492;2022-09-21T02:51:09;99047.56;;;14.77;58.37
49651;BME280;35547;55.676;37.492;2022-09-21T02:52:13;99058.22;;;14.73;58.45
49651;BME280;35547;55.676;37.492;2022-09-21T02:53:20;99056.38;;;14.76;58.80
49651;BME280;35547;55.676;37.492;2022-09-21T02:54:25;99054.19;;;14.85;58.47
49651;BME280;35547;55.676;37.492;2022-09-21T02:55:28;99045.38;;;14.86;58.28
49651;BME280;35547;55.676;37.492;2022-09-21T02:56:31;99051.91;;;15.36;56.88
49651;BME280;35547;55.676;37.492;2022-09-21T02:57:33;99057.28;;;15.14;57.37
49651;BME280;35547;55.676;37.492;2022-09-21T02:58:39;99038.44;;;15.04;57.44
49651;BME280;35547;55.676;37.492;2022-09-21T02:59:41;99055.78;;;15.08;57.35
49651;BME280;35547;55.676;37.492;2022-09-21T03:00:42;99048.97;;;15.04;57.95
49651;BME280;35547;55.676;37.492;2022-09-21T03:01:43;99046.91;;;15.11;57.50
49651;BME280;35547;55.676;37.492;2022-09-21T03:02:44;99052.94;;;15.13;57.33
49651;BME280;35547;55.676;37.492;2022-09-21T03:03:45;99042.38;;;15.14;57.48
49651;BME280;35547;55.676;37.492;2022-09-21T03:04:46;99052.41;;;15.25;56.94
49651;BME280;35547;55.676;37.492;2022-09-21T03:05:47;99048.69;;;15.67;56.48
49651;BME280;35547;55.676;37.492;2022-09-21T03:06:49;99051.47;;;15.45;56.70
49651;BME280;35547;55.676;37.492;2022-09-21T03:07:49;99049.19;;;15.38;56.80
49651;BME280;35547;55.676;37.492;2022-09-21T03:08:50;99046.84;;;15.31;56.77
49651;BME280;35547;55.676;37.492;2022-09-21T03:09:50;99047.84;;;15.29;57.21
49651;BME280;35547;55.676;37.492;2022-09-21T03:10:51;99053.25;;;15.26;56.89
49651;BME280;35547;55.676;37.492;2022-09-21T03:11:51;99040.59;;;15.15;57.25
49651;BME280;35547;55.676;37.492;2022-09-21T03:12:56;99045.06;;;15.13;57.32
49651;BME280;35547;55.676;37.492;2022-09-21T03:13:58;99050.75;;;15.04;57.92
49651;BME280;35547;55.676;37.492;2022-09-21T03:14:59;99049.47;;;15.12;57.71
49651;BME280;35547;55.676;37.492;2022-09-21T03:16:04;99045.13;;;15.11;58.02
49651;BME280;35547;55.676;37.492;2022-09-21T03:17:06;99050.75;;;15.04;57.67
49651;BME280;35547;55.676;37.492;2022-09-21T03:18:08;99053.19;;;15.27;57.19
49651;BME280;35547;55.676;37.492;2022-09-21T03:19:09;99051.59;;;15.04;58.09
49651;BME280;35547;55.676;37.492;2022-09-21T03:20:11;99047.19;;;15.05;57.79
49651;BME280;35547;55.676;37.492;2022-09-21T03:21:12;99047.91;;;15.08;57.92
49651;BME280;35547;55.676;37.492;2022-09-21T03:22:12;99052.16;;;15.11;57.63
49651;BME280;35547;55.676;37.492;2022-09-21T03:23:13;99035.66;;;15.07;58.05
49651;BME280;35547;55.676;37.492;2022-09-21T03:24:13;99049.78;;;15.25;57.27
49651;BME280;35547;55.676;37.492;2022-09-21T03:25:34;99049.78;;;15.25;57.48
49651;BME280;35547;55.676;37.492;2022-09-21T03:26:35;99043.63;;;15.25;57.41
49651;BME280;35547;55.676;37.492;2022-09-21T03:27:35;99046.19;;;15.26;57.31
49651;BME280;35547;55.676;37.492;2022-09-21T03:28:36;99031.84;;;15.14;57.42
49651;BME280;35547;55.676;37.492;2022-09-21T03:29:37;99057.78;;;15.22;57.75
49651;BME280;35547;55.676;37.492;2022-09-21T03:30:38;99051.69;;;15.22;57.56
49651;BME280;35547;55.676;37.492;2022-09-21T03:31:39;99041.50;;;15.14;57.56
49651;BME280;35547;55.676;37.492;2022-09-21T03:32:57;99051.63;;;15.23;57.42
49651;BME280;35547;55.676;37.492;2022-09-21T03:33:58;99040.81;;;15.29;57.40
49651;BME280;35547;55.676;37.492;2022-09-21T03:34:58;99044.19;;;15.31;57.33
49651;BME280;35547;55.676;37.492;2022-09-21T03:35:59;99044.34;;;15.28;57.18
49651;BME280;35547;55.676;37.492;2022-09-21T03:37:04;99046.84;;;15.31;57.63
49651;BME280;35547;55.676;37.492;2022-09-21T03:38:05;99042.56;;;15.29;57.75
49651;BME280;35547;55.676;37.492;2022-09-21T03:39:06;99041.00;;;15.25;57.39
49651;BME280;35547;55.676;37.492;2022-09-21T03:40:07;99028.78;;;15.24;57.58
49651;BME280;35547;55.676;37.492;2022-09-21T03:41:08;99043.81;;;15.41;57.34
49651;BME280;35547;55.676;37.492;2022-09-21T03:42:08;99044.66;;;15.41;57.41
49651;BME280;35547;55.676;37.492;2022-09-21T03:43:09;99041.66;;;15.49;56.88
49651;BME280;35547;55.676;37.492;2022-09-21T03:44:10;99033.91;;;15.46;57.15
49651;BME280;35547;55.676;37.492;2022-09-21T03:45:11;99040.66;;;15.51;56.94
49651;BME280;35547;55.676;37.492;2022-09-21T03:46:12;99041.22;;;15.58;56.69
49651;BME280;35547;55.676;37.492;2022-09-21T03:47:12;99039.66;;;15.54;57.20
49651;BME280;35547;55.676;37.492;2022-09-21T03:48:13;99044.50;;;15.44;56.97
49651;BME280;35547;55.676;37.492;2022-09-21T03:49:15;99031.84;;;15.52;57.20
49651;BME280;35547;55.676;37.492;2022-09-21T03:50:15;99038.03;;;15.51;56.85
49651;BME280;35547;55.676;37.492;2022-09-21T03:51:16;99027.59;;;15.50;56.93
49651;BME280;35547;55.676;37.492;2022-09-21T03:52:17;99034.56;;;15.51;56.83
49651;BME280;35547;55.676;37.492;2022-09-21T03:53:17;99034.63;;;15.49;57.14
49651;BME280;35547;55.676;37.492;2022-09-21T03:54:18;99044.78;;;15.57;56.95
49651;BME280;35547;55.676;37.492;2022-09-21T03:55:18;99028.19;;;15.55;56.84
49651;BME280;35547;55.676;37.492;2022-09-21T03:56:19;99038.31;;;15.64;56.58
49651;BME280;35547;55.676;37.492;2022-09-21T03:57:19;99038.94;;;15.69;56.65
49651;BME280;35547;55.676;37.492;2022-09-21T03:58:20;99047.19;;;15.81;56.43
49651;BME280;35547;55.676;37.492;2022-09-21T03:59:21;99037.66;;;15.78;56.33
49651;BME280;35547;55.676;37.492;2022-09-21T04:00:21;99042.94;;;15.78;56.69
49651;BME280;35547;55.676;37.492;2022-09-21T04:01:22;99036.66;;;15.81;56.36
49651;BME280;35547;55.676;37.492;2022-09-21T04:02:23;99032.56;;;15.75;56.78
49651;BME280;35547;55.676;37.492;2022-09-21T04:03:23;99038.78;;;15.91;56.07
49651;BME280;35547;55.676;37.492;2022-09-21T04:04:24;99040.78;;;15.86;56.29
49651;BME280;35547;55.676;37.492;2022-09-21T04:05:24;99036.38;;;15.87;56.37
49651;BME280;35547;55.676;37.492;2022-09-21T04:06:25;99041.28;;;15.94;56.08
49651;BME280;35547;55.676;37.492;2022-09-21T04:07:25;99040.50;;;15.92;56.10
49651;BME280;35547;55.676;37.492;2022-09-21T04:08:29;99042.28;;;15.92;56.04
49651;BME280;35547;55.676;37.492;2022-09-21T04:09:32;99051.66;;;15.97;55.96
49651;BME280;35547;55.676;37.492;2022-09-21T04:10:32;99049.78;;;16.00;55.86
49651;BME280;35547;55.676;37.492;2022-09-21T04:11:33;99040.88;;;16.02;55.80
49651;BME280;35547;55.676;37.492;2022-09-21T04:12:34;99040.09;;;16.00;55.91
49651;BME280;35547;55.676;37.492;2022-09-21T04:13:35;99046.16;;;16.02;55.99
49651;BME280;35547;55.676;37.492;2022-09-21T04:14:36;99036.81;;;16.14;55.67
49651;BME280;35547;55.676;37.492;2022-09-21T04:15:36;99038.59;;;16.13;55.82
49651;BME280;35547;55.676;37.492;2022-09-21T04:16:37;99035.97;;;16.13;55.53
49651;BME280;35547;55.676;37.492;2022-09-21T04:17:38;99039.44;;;16.14;55.45
49651;BME280;35547;55.676;37.492;2022-09-21T04:18:38;99035.03;;;16.14;55.76
49651;BME280;35547;55.676;37.492;2022-09-21T04:19:39;99031.84;;;16.25;55.62
49651;BME280;35547;55.676;37.492;2022-09-21T04:20:40;98986.84;;;16.12;55.13
49651;BME280;35547;55.676;37.492;2022-09-21T04:21:40;99039.69;;;16.44;55.03
49651;BME280;35547;55.676;37.492;2022-09-21T04:22:41;99025.44;;;16.31;55.21
49651;BME280;35547;55.676;37.492;2022-09-21T04:23:42;99017.06;;;16.23;55.48
49651;BME280;35547;55.676;37.492;2022-09-21T04:24:43;99020.53;;;16.41;55.20
49651;BME280;35547;55.676;37.492;2022-09-21T04:25:43;99033.69;;;16.58;54.87
49651;BME280;35547;55.676;37.492;2022-09-21T04:26:46;99036.34;;;16.58;54.92
49651;BME280;35547;55.676;37.492;2022-09-21T04:27:46;99028.44;;;16.58;54.71
49651;BME280;35547;55.676;37.492;2022-09-21T04:28:48;99033.31;;;16.66;54.78
49651;BME280;35547;55.676;37.492;2022-09-21T04:29:48;99037.63;;;16.67;54.68
49651;BME280;35547;55.676;37.492;2022-09-21T04:30:53;99032.59;;;16.79;54.29
49651;BME280;35547;55.676;37.492;2022-09-21T04:31:54;99029.91;;;16.64;54.50
49651;BME280;35547;55.676;37.492;2022-09-21T04:32:55;99029.13;;;16.62;54.35
49651;BME280;35547;55.676;37.492;2022-09-21T04:33:56;99041.22;;;16.66;54.76
49651;BME280;35547;55.676;37.492;2022-09-21T04:34:57;99043.78;;;16.67;54.74
49651;BME280;35547;55.676;37.492;2022-09-21T04:35:58;99040.81;;;16.56;54.90
49651;BME280;35547;55.676;37.492;2022-09-21T04:36:59;99036.50;;;16.55;54.88
49651;BME280;35547;55.676;37.492;2022-09-21T04:37:59;99042.38;;;16.60;54.87
49651;BME280;35547;55.676;37.492;2022-09-21T04:39:00;99044.09;;;16.61;54.93
49651;BME280;35547;55.676;37.492;2022-09-21T04:40:00;99045.47;;;16.68;54.85
49651;BME280;35547;55.676;37.492;2022-09-21T04:41:01;99045.00;;;16.60;55.11
49651;BME280;35547;55.676;37.492;2022-09-21T04:42:03;99045.00;;;16.60;55.25
49651;BME280;35547;55.676;37.492;2022-09-21T04:43:04;99054.63;;;16.61;55.04
49651;BME280;35547;55.676;37.492;2022-09-21T04:44:04;99043.09;;;16.64;54.79
49651;BME280;35547;55.676;37.492;2022-09-21T04:45:05;99045.13;;;16.58;54.88
49651;BME280;35547;55.676;37.492;2022-09-21T04:46:07;99050.47;;;17.08;53.92
49651;BME280;35547;55.676;37.492;2022-09-21T04:47:09;99044.47;;;16.71;54.46
49651;BME280;35547;55.676;37.492;2022-09-21T04:48:09;99051.16;;;16.61;55.08
49651;BME280;35547;55.676;37.492;2022-09-21T04:49:10;99051.91;;;16.63;55.24
49651;BME280;35547;55.676;37.492;2022-09-21T04:50:11;99046.88;;;16.58;55.11
49651;BME280;35547;55.676;37.492;2022-09-21T04:51:13;99052.13;;;16.75;55.11
49651;BME280;35547;55.676;37.492;2022-09-21T04:52:14;99043.31;;;16.59;55.28
49651;BME280;35547;55.676;37.492;2022-09-21T04:53:15;99055.47;;;16.79;55.18
49651;BME280;35547;55.676;37.492;2022-09-21T04:54:15;99047.72;;;16.93;55.04
49651;BME280;35547;55.676;37.492;2022-09-21T04:55:16;99047.41;;;16.99;54.58
49651;BME280;35547;55.676;37.492;2022-09-21T04:56:17;99055.75;;;17.08;54.47
49651;BME280;35547;55.676;37.492;2022-09-21T04:57:17;99052.78;;;17.14;54.07
49651;BME280;35547;55.676;37.492;2022-09-21T04:58:18;99053.78;;;16.95;54.73
49651;BME280;35547;55.676;37.492;2022-09-21T04:59:18;99057.50;;;16.91;55.23
49651;BME280;35547;55.676;37.492;2022-09-21T05:00:19;99055.78;;;16.90;55.19
49651;BME280;35547;55.676;37.492;2022-09-21T05:01:20;99058.72;;;17.02;54.90
49651;BME280;35547;55.676;37.492;2022-09-21T05:02:20;99053.03;;;17.09;54.31
49651;BME280;35547;55.676;37.492;2022-09-21T05:03:22;99058.22;;;17.11;54.52
49651;BME280;35547;55.676;37.492;2022-09-21T05:04:23;99053.16;;;17.24;54.00
49651;BME280;35547;55.676;37.492;2022-09-21T05:05:24;99055.84;;;17.22;53.91
49651;BME280;35547;55.676;37.492;2022-09-21T05:06:24;99056.56;;;17.26;53.47
49651;BME280;35547;55.676;37.492;2022-09-21T05:07:25;99056.47;;;17.27;53.51
49651;BME280;35547;55.676;37.492;2022-09-21T05:08:26;99054.84;;;17.25;53.67
49651;BME280;35547;55.676;37.492;2022-09-21T05:09:45;99050.06;;;17.31;53.35
49651;BME280;35547;55.676;37.492;2022-09-21T05:11:05;99059.13;;;17.43;53.51
49651;BME280;35547;55.676;37.492;2022-09-21T05:12:06;99029.91;;;17.30;53.74
49651;BME280;35547;55.676;37.492;2022-09-21T05:13:07;99063.38;;;17.61;53.27
49651;BME280;35547;55.676;37.492;2022-09-21T05:14:08;99054.53;;;17.47;53.67
49651;BME280;35547;55.676;37.492;2022-09-21T05:15:09;99045.34;;;17.54;53.09
49651;BME280;35547;55.676;37.492;2022-09-21T05:16:14;99057.09;;;17.64;53.24
49651;BME280;35547;55.676;37.492;2022-09-21T05:17:15;99060.31;;;17.69;53.08
49651;BME280;35547;55.676;37.492;2022-09-21T05:18:16;99063.91;;;17.68;52.94
49651;BME280;35547;55.676;37.492;2022-09-21T05:19:16;99055.31;;;17.65;53.01
49651;BME280;35547;55.676;37.492;2022-09-21T05:20:17;99054.22;;;17.69;53.00
49651;BME280;35547;55.676;37.492;2022-09-21T05:21:17;99065.50;;;17.55;53.17
49651;BME280;35547;55.676;37.492;2022-09-21T05:22:19;99063.47;;;17.44;53.59
49651;BME280;35547;55.676;37.492;2022-09-21T05:23:20;99068.66;;;17.46;53.56
49651;BME280;35547;55.676;37.492;2022-09-21T05:24:20;99069.09;;;17.54;53.51
49651;BME280;35547;55.676;37.492;2022-09-21T05:25:21;99064.72;;;17.37;53.48
49651;BME280;35547;55.676;37.492;2022-09-21T05:26:21;99059.63;;;17.34;54.01
49651;BME280;35547;55.676;37.492;2022-09-21T05:27:22;99059.81;;;17.63;53.29
49651;BME280;35547;55.676;37.492;2022-09-21T05:28:23;99063.41;;;17.77;52.83
49651;BME280;35547;55.676;37.492;2022-09-21T05:29:24;99054.44;;;17.80;52.68
49651;BME280;35547;55.676;37.492;2022-09-21T05:30:25;99049.34;;;17.77;52.69
49651;BME280;35547;55.676;37.492;2022-09-21T05:32:47;99057.00;;;17.81;52.48
49651;BME280;35547;55.676;37.492;2022-09-21T05:33:56;99060.84;;;17.60;52.99
49651;BME280;35547;55.676;37.492;2022-09-21T05:35:22;99066.31;;;17.89;52.35
49651;BME280;35547;55.676;37.492;2022-09-21T05:38:18;99056.91;;;18.15;51.81
49651;BME280;35547;55.676;37.492;2022-09-21T05:39:19;99063.31;;;17.79;52.40
49651;BME280;35547;55.676;37.492;2022-09-21T05:40:20;99051.81;;;17.80;52.68
49651;BME280;35547;55.676;37.492;2022-09-21T05:41:22;99060.44;;;17.84;52.79
49651;BME280;35547;55.676;37.492;2022-09-21T05:42:22;99055.94;;;17.86;52.54
49651;BME280;35547;55.676;37.492;2022-09-21T05:43:23;99041.44;;;17.93;52.52
49651;BME280;35547;55.676;37.492;2022-09-21T05:44:24;99059.22;;;17.89;52.64
49651;BME280;35547;55.676;37.492;2022-09-21T05:45:25;99051.81;;;17.96;52.35
49651;BME280;35547;55.676;37.492;2022-09-21T05:46:38;99042.63;;;18.03;53.22
49651;BME280;35547;55.676;37.492;2022-09-21T05:48:02;99044.03;;;18.09;52.57
49651;BME280;35547;55.676;37.492;2022-09-21T05:49:16;99049.25;;;18.10;52.18
49651;BME280;35547;55.676;37.492;2022-09-21T05:52:42;99056.81;;;18.47;51.47
49651;BME280;35547;55.676;37.492;2022-09-21T05:54:25;99050.66;;;18.76;50.97
49651;BME280;35547;55.676;37.492;2022-09-21T05:55:34;99052.47;;;18.76;51.00
49651;BME280;35547;55.676;37.492;2022-09-21T05:58:05;99045.97;;;18.81;50.79
49651;BME280;35547;55.676;37.492;2022-09-21T06:00:38;99050.06;;;18.57;50.83
49651;BME280;35547;55.676;37.492;2022-09-21T06:02:05;99052.78;;;19.00;50.49
49651;BME280;35547;55.676;37.492;2022-09-21T06:03:25;99054.28;;;18.90;50.40
49651;BME280;35547;55.676;37.492;2022-09-21T06:04:27;99058.72;;;18.89;50.52
49651;BME280;35547;55.676;37.492;2022-09-21T06:05:28;99057.69;;;18.92;50.41
49651;BME280;35547;55.676;37.492;2022-09-21T06:06:29;99052.00;;;18.83;50.53
49651;BME280;35547;55.676;37.492;2022-09-21T06:07:30;99047.31;;;18.58;51.28
49651;BME280;35547;55.676;37.492;2022-09-21T06:08:30;99054.72;;;18.82;51.13
49651;BME280;35547;55.676;37.492;2022-09-21T06:09:31;99049.09;;;19.02;50.27
49651;BME280;35547;55.676;37.492;2022-09-21T06:10:33;99047.31;;;19.17;49.89
49651;BME280;35547;55.676;37.492;2022-09-21T06:11:34;99054.31;;;19.04;49.98